createdAt,value
2018-05-26T00:02:01.783Z,99.90
2018-05-26T00:06:58.157Z,99.90
2018-05-26T00:09:26.381Z,99.90
2018-05-26T00:11:53.908Z,99.90
2018-05-26T00:14:21.804Z,99.90
2018-05-26T00:16:49.354Z,99.90
2018-05-26T00:19:17.265Z,99.90
2018-05-26T00:21:45.917Z,99.90
2018-05-26T00:24:13.423Z,99.90
2018-05-26T00:26:40.939Z,99.90
2018-05-26T00:29:08.462Z,99.90
2018-05-26T00:31:35.977Z,99.90
2018-05-26T00:34:03.556Z,99.90
2018-05-26T00:36:31.501Z,99.90
2018-05-26T00:38:59.019Z,99.90
2018-05-26T00:41:27.293Z,99.90
2018-05-26T00:43:54.867Z,99.90
2018-05-26T00:46:23.139Z,99.90
2018-05-26T00:48:50.649Z,99.90
2018-05-26T00:51:21.481Z,99.90
2018-05-26T00:53:50.239Z,99.90
2018-05-26T00:56:17.747Z,99.90
2018-05-26T00:58:45.643Z,99.90
2018-05-26T01:01:14.293Z,99.90
2018-05-26T01:03:43.313Z,99.90
2018-05-26T01:06:10.836Z,99.90
2018-05-26T01:08:39.107Z,99.90
2018-05-26T01:11:07.400Z,99.90
2018-05-26T01:13:34.921Z,99.90
2018-05-26T01:16:02.427Z,99.90
2018-05-26T01:18:29.964Z,99.90
2018-05-26T01:20:57.859Z,99.90
2018-05-26T01:23:26.143Z,99.90
2018-05-26T01:25:53.680Z,99.90
2018-05-26T01:28:21.602Z,99.90
2018-05-26T01:30:49.103Z,99.90
2018-05-26T01:33:17.390Z,99.90
2018-05-26T01:35:45.655Z,99.90
2018-05-26T01:38:13.935Z,99.90
2018-05-26T01:43:10.703Z,99.90
2018-05-26T01:45:38.983Z,99.90
2018-05-26T01:48:07.245Z,99.90
2018-05-26T01:50:35.149Z,99.90
2018-05-26T01:53:03.057Z,99.90
2018-05-26T01:55:31.719Z,99.90
2018-05-26T01:57:59.633Z,99.90
2018-05-26T02:00:27.931Z,99.90
2018-05-26T02:02:55.437Z,99.90
2018-05-26T02:05:23.721Z,99.90
2018-05-26T02:07:52.005Z,99.90
2018-05-26T02:10:20.314Z,99.90
2018-05-26T02:12:48.285Z,99.90
2018-05-26T02:15:15.790Z,99.90
2018-05-26T02:17:43.319Z,99.90
2018-05-26T02:20:10.828Z,99.90
2018-05-26T02:22:39.101Z,99.90
2018-05-26T02:25:06.641Z,99.90
2018-05-26T02:27:34.165Z,99.90
2018-05-26T02:30:01.672Z,99.90
2018-05-26T02:32:30.697Z,99.90
2018-05-26T02:34:58.216Z,99.90
2018-05-26T02:37:25.724Z,99.90
2018-05-26T02:39:53.643Z,99.90
2018-05-26T02:42:21.159Z,99.90
2018-05-26T02:44:49.449Z,99.90
2018-05-26T02:47:16.965Z,99.90
2018-05-26T02:49:45.247Z,99.90
2018-05-26T02:54:41.625Z,99.90
2018-05-26T02:57:09.536Z,99.90
2018-05-26T02:59:37.051Z,99.90
2018-05-26T03:02:04.953Z,99.90
2018-05-26T03:04:38.398Z,99.90
2018-05-26T03:07:12.403Z,99.90
2018-05-26T03:09:46.457Z,99.90
2018-05-26T03:12:19.737Z,99.90
2018-05-26T03:14:47.543Z,99.90
2018-05-26T03:17:19.314Z,99.90
2018-05-26T03:19:46.863Z,99.90
2018-05-26T03:22:14.373Z,99.90
2018-05-26T03:24:41.878Z,99.90
2018-05-26T03:27:09.491Z,99.90
2018-05-26T03:29:36.993Z,99.90
2018-05-26T03:32:04.510Z,99.90
2018-05-26T03:34:32.013Z,99.90
2018-05-26T03:36:59.534Z,99.90
2018-05-26T03:39:27.810Z,99.90
2018-05-26T03:41:55.341Z,99.90
2018-05-26T03:44:24.353Z,99.90
2018-05-26T03:46:51.864Z,99.90
2018-05-26T03:49:19.385Z,99.90
2018-05-26T03:51:46.889Z,99.90
2018-05-26T03:54:14.810Z,99.90
2018-05-26T03:57:03.047Z,99.90
2018-05-26T03:59:52.220Z,99.90
2018-05-26T04:02:19.722Z,99.90
2018-05-26T04:04:47.234Z,99.90
2018-05-26T04:07:15.143Z,99.90
2018-05-26T04:09:43.068Z,99.90
2018-05-26T04:12:10.587Z,99.90
2018-05-26T04:14:38.101Z,99.90
2018-05-26T04:17:05.608Z,99.90
2018-05-26T04:19:33.890Z,99.90
2018-05-26T04:22:01.802Z,99.90
2018-05-26T04:24:29.333Z,99.90
2018-05-26T04:26:57.235Z,99.90
2018-05-26T04:29:24.764Z,99.90
2018-05-26T04:31:52.709Z,99.90
2018-05-26T04:34:20.990Z,99.90
2018-05-26T04:36:49.323Z,99.90
2018-05-26T04:39:18.342Z,99.90
2018-05-26T04:41:45.887Z,99.90
2018-05-26T04:44:13.802Z,99.90
2018-05-26T04:46:41.333Z,99.90
2018-05-26T04:49:10.479Z,99.90
2018-05-26T04:51:38.791Z,99.90
2018-05-26T04:54:07.062Z,99.90
2018-05-26T04:56:34.981Z,99.90
2018-05-26T04:59:03.384Z,99.90
2018-05-26T05:01:30.902Z,99.90
2018-05-26T05:03:59.190Z,99.90
2018-05-26T05:06:27.464Z,99.90
2018-05-26T05:08:55.786Z,99.90
2018-05-26T05:11:23.299Z,99.90
2018-05-26T05:13:51.576Z,99.90
2018-05-26T05:16:19.854Z,99.90
2018-05-26T05:18:47.800Z,99.90
2018-05-26T05:21:16.100Z,99.90
2018-05-26T05:23:44.017Z,99.90
2018-05-26T05:26:11.915Z,99.90
2018-05-26T05:28:40.198Z,99.90
2018-05-26T05:31:07.732Z,99.90
2018-05-26T05:33:35.230Z,99.90
2018-05-26T05:36:03.598Z,99.90
2018-05-26T05:38:31.882Z,99.90
2018-05-26T05:41:00.221Z,99.90
2018-05-26T05:43:28.499Z,99.90
2018-05-26T05:45:56.023Z,99.90
2018-05-26T05:48:24.311Z,99.90
2018-05-26T05:50:51.883Z,99.90
2018-05-26T05:53:19.390Z,99.90
2018-05-26T05:55:47.763Z,99.90
2018-05-26T05:58:15.271Z,99.90
2018-05-26T06:00:42.789Z,99.90
2018-05-26T06:03:11.067Z,99.90
2018-05-26T06:05:39.329Z,99.90
2018-05-26T06:08:06.855Z,99.90
2018-05-26T06:10:35.133Z,99.90
2018-05-26T06:13:02.651Z,99.90
2018-05-26T06:15:30.940Z,99.90
2018-05-26T06:17:58.500Z,99.90
2018-05-26T06:20:26.010Z,99.90
2018-05-26T06:22:53.543Z,99.90
2018-05-26T06:25:21.046Z,99.90
2018-05-26T06:27:49.328Z,99.90
2018-05-26T06:30:17.621Z,99.90
2018-05-26T06:32:45.528Z,99.90
2018-05-26T06:35:13.058Z,99.90
2018-05-26T06:37:40.600Z,99.90
2018-05-26T06:40:08.893Z,99.90
2018-05-26T06:45:05.516Z,99.90
2018-05-26T06:47:33.023Z,99.90
2018-05-26T06:50:00.535Z,99.90
2018-05-26T06:52:28.384Z,99.90
2018-05-26T06:54:55.897Z,99.90
2018-05-26T06:57:23.417Z,99.90
2018-05-26T06:59:50.938Z,99.90
2018-05-26T07:02:18.457Z,99.90
2018-05-26T07:04:46.726Z,99.90
2018-05-26T07:07:14.273Z,99.90
2018-05-26T07:09:42.175Z,99.90
2018-05-26T07:12:09.696Z,99.90
2018-05-26T07:14:37.607Z,99.90
2018-05-26T07:17:05.118Z,99.90
2018-05-26T07:19:33.043Z,99.90
2018-05-26T07:22:00.566Z,99.90
2018-05-26T07:24:28.594Z,99.90
2018-05-26T07:26:56.104Z,99.90
2018-05-26T07:29:24.390Z,99.90
2018-05-26T07:31:51.898Z,99.90
2018-05-26T07:34:19.796Z,99.90
2018-05-26T07:36:48.084Z,99.90
2018-05-26T07:39:15.604Z,99.90
2018-05-26T07:41:43.402Z,99.90
2018-05-26T07:44:11.694Z,99.90
2018-05-26T07:46:39.222Z,99.90
2018-05-26T07:49:06.744Z,99.90
2018-05-26T07:51:34.667Z,99.90
2018-05-26T07:54:02.202Z,99.90
2018-05-26T07:56:30.516Z,99.90
2018-05-26T07:58:58.033Z,99.90
2018-05-26T08:01:25.600Z,99.90
2018-05-26T08:03:53.885Z,99.90
2018-05-26T08:06:22.166Z,99.90
2018-05-26T08:08:50.453Z,99.90
2018-05-26T08:11:18.732Z,99.90
2018-05-26T08:13:47.019Z,99.90
2018-05-26T08:16:15.312Z,99.90
2018-05-26T08:18:43.612Z,99.90
2018-05-26T08:21:11.119Z,99.90
2018-05-26T08:23:39.408Z,99.90
2018-05-26T08:26:06.923Z,99.90
2018-05-26T08:28:34.462Z,99.90
2018-05-26T08:31:01.989Z,99.90
2018-05-26T08:33:29.499Z,99.90
2018-05-26T08:35:57.032Z,99.90
2018-05-26T08:38:24.550Z,99.90
2018-05-26T08:40:52.843Z,99.90
2018-05-26T08:43:20.738Z,99.90
2018-05-26T08:45:48.675Z,99.90
2018-05-26T08:48:16.199Z,99.90
2018-05-26T08:50:43.723Z,99.90
2018-05-26T08:53:11.313Z,99.90
2018-05-26T08:55:38.818Z,99.90
2018-05-26T08:58:06.348Z,99.90
2018-05-26T09:00:33.835Z,99.90
2018-05-26T09:03:01.361Z,99.90
2018-05-26T09:05:28.886Z,99.90
2018-05-26T09:07:56.411Z,99.90
2018-05-26T09:10:23.923Z,99.90
2018-05-26T09:12:51.426Z,99.90
2018-05-26T09:15:18.959Z,99.90
2018-05-26T09:17:46.863Z,99.90
2018-05-26T09:20:14.783Z,99.90
2018-05-26T09:22:42.301Z,99.90
2018-05-26T09:25:09.877Z,99.90
2018-05-26T09:27:37.736Z,99.90
2018-05-26T09:30:05.249Z,99.90
2018-05-26T09:32:33.524Z,99.90
2018-05-26T09:35:02.033Z,99.90
2018-05-26T09:37:29.555Z,99.90
2018-05-26T09:39:57.069Z,99.90
2018-05-26T09:42:24.591Z,99.90
2018-05-26T09:44:52.868Z,99.90
2018-05-26T09:47:20.416Z,99.90
2018-05-26T09:49:48.686Z,99.90
2018-05-26T09:52:16.226Z,99.90
2018-05-26T09:54:43.725Z,99.90
2018-05-26T09:57:12.050Z,99.90
2018-05-26T09:59:39.632Z,99.90
2018-05-26T10:02:07.200Z,99.90
2018-05-26T10:04:34.704Z,99.90
2018-05-26T10:07:02.968Z,99.90
2018-05-26T10:09:30.474Z,99.90
2018-05-26T10:11:58.433Z,99.90
2018-05-26T10:14:25.970Z,99.90
2018-05-26T10:16:53.490Z,99.90
2018-05-26T10:19:21.772Z,99.90
2018-05-26T10:21:50.030Z,99.90
2018-05-26T10:24:17.530Z,99.90
2018-05-26T10:26:45.032Z,96.50
2018-05-26T10:29:12.954Z,99.90
2018-05-26T10:31:40.462Z,99.90
2018-05-26T10:34:07.984Z,94.30
2018-05-26T10:36:36.246Z,94.50
2018-05-26T10:39:04.520Z,91.40
2018-05-26T10:41:32.799Z,89.80
2018-05-26T10:44:00.311Z,83.70
2018-05-26T10:46:28.614Z,92.50
2018-05-26T10:48:56.114Z,85.50
2018-05-26T10:51:23.736Z,89.30
2018-05-26T10:53:52.006Z,87.80
2018-05-26T10:56:19.918Z,86.90
2018-05-26T10:58:47.418Z,89.50
2018-05-26T11:01:14.930Z,78.80
2018-05-26T11:03:42.436Z,80.50
2018-05-26T11:06:09.970Z,90.50
2018-05-26T11:08:37.531Z,79.50
2018-05-26T11:11:05.424Z,76.20
2018-05-26T11:13:33.712Z,76.20
2018-05-26T11:16:01.994Z,67.40
2018-05-26T11:18:30.282Z,68.20
2018-05-26T11:20:58.570Z,62.20
2018-05-26T11:23:26.109Z,75.10
2018-05-26T11:25:53.653Z,75.90
2018-05-26T11:28:22.932Z,62.10
2018-05-26T11:30:50.538Z,68.40
2018-05-26T11:33:18.450Z,60.90
2018-05-26T11:35:45.956Z,69.60
2018-05-26T11:38:14.259Z,62.10
2018-05-26T11:40:41.796Z,61.50
2018-05-26T11:43:09.335Z,60.20
2018-05-26T11:45:37.604Z,63.30
2018-05-26T11:48:05.123Z,64.20
2018-05-26T11:50:33.081Z,59.40
2018-05-26T11:53:00.588Z,69.70
2018-05-26T11:55:28.124Z,68.80
2018-05-26T11:57:55.624Z,58.10
2018-05-26T12:00:23.915Z,57.00
2018-05-26T12:02:52.185Z,58.30
2018-05-26T12:05:20.482Z,59.30
2018-05-26T12:07:47.990Z,60.50
2018-05-26T12:10:16.266Z,60.60
2018-05-26T12:12:44.571Z,59.80
2018-05-26T12:15:12.849Z,59.20
2018-05-26T12:17:40.751Z,61.00
2018-05-26T12:20:08.255Z,62.00
2018-05-26T12:22:35.775Z,59.60
2018-05-26T12:25:03.711Z,57.80
2018-05-26T12:27:32.015Z,55.50
2018-05-26T12:29:59.904Z,54.70
2018-05-26T12:32:28.205Z,53.10
2018-05-26T12:34:55.708Z,58.60
2018-05-26T12:37:23.226Z,61.20
2018-05-26T12:39:50.765Z,63.00
2018-05-26T12:42:18.265Z,57.10
2018-05-26T12:44:46.540Z,55.70
2018-05-26T12:47:14.441Z,54.40
2018-05-26T12:49:41.962Z,63.20
2018-05-26T12:52:09.513Z,68.60
2018-05-26T12:54:37.051Z,64.80
2018-05-26T12:57:04.547Z,64.90
2018-05-26T12:59:32.837Z,62.60
2018-05-26T13:02:00.749Z,60.60
2018-05-26T13:04:28.274Z,74.60
2018-05-26T13:06:55.796Z,73.60
2018-05-26T13:09:23.311Z,74.70
2018-05-26T13:11:50.824Z,90.10
2018-05-26T13:14:19.224Z,77.90
2018-05-26T13:16:46.745Z,76.50
2018-05-26T13:19:14.257Z,76.90
2018-05-26T13:21:42.167Z,80.60
2018-05-26T13:24:09.671Z,73.90
2018-05-26T13:26:38.068Z,70.10
2018-05-26T13:29:05.585Z,66.50
2018-05-26T13:31:33.903Z,81.20
2018-05-26T13:34:01.448Z,79.10
2018-05-26T13:36:28.962Z,77.30
2018-05-26T13:38:56.483Z,70.40
2018-05-26T13:41:24.868Z,75.90
2018-05-26T13:43:52.418Z,70.20
2018-05-26T13:46:19.937Z,76.20
2018-05-26T13:48:48.569Z,79.00
2018-05-26T13:51:16.147Z,79.80
2018-05-26T13:53:43.679Z,68.70
2018-05-26T13:56:11.598Z,73.40
2018-05-26T13:58:39.471Z,71.80
2018-05-26T14:01:07.369Z,76.90
2018-05-26T14:03:35.678Z,76.50
2018-05-26T14:06:03.471Z,77.00
2018-05-26T14:08:30.979Z,88.10
2018-05-26T14:10:58.587Z,83.90
2018-05-26T14:13:26.074Z,84.50
2018-05-26T14:15:54.425Z,90.00
2018-05-26T14:18:22.134Z,78.50
2018-05-26T14:20:49.648Z,79.70
2018-05-26T14:23:17.178Z,76.40
2018-05-26T14:25:44.689Z,79.30
2018-05-26T14:28:12.969Z,76.10
2018-05-26T14:30:41.293Z,72.90
2018-05-26T14:33:08.804Z,84.10
2018-05-26T14:35:36.745Z,85.90
2018-05-26T14:38:04.251Z,93.30
2018-05-26T14:40:32.528Z,78.70
2018-05-26T14:43:00.027Z,87.70
2018-05-26T14:45:27.529Z,75.60
2018-05-26T14:47:55.823Z,81.50
2018-05-26T14:50:23.356Z,74.30
2018-05-26T14:52:51.367Z,74.30
2018-05-26T14:55:18.895Z,92.90
2018-05-26T14:57:47.186Z,88.10
2018-05-26T15:00:14.732Z,78.80
2018-05-26T15:02:42.652Z,75.90
2018-05-26T15:05:10.932Z,91.30
2018-05-26T15:07:38.423Z,82.50
2018-05-26T15:10:06.724Z,75.10
2018-05-26T15:12:34.245Z,86.20
2018-05-26T15:15:01.772Z,87.70
2018-05-26T15:17:29.339Z,84.90
2018-05-26T15:19:56.857Z,88.80
2018-05-26T15:22:25.135Z,88.90
2018-05-26T15:24:53.414Z,92.80
2018-05-26T15:27:20.914Z,93.80
2018-05-26T15:29:48.443Z,88.30
2018-05-26T15:32:15.949Z,80.30
2018-05-26T15:34:43.479Z,91.60
2018-05-26T15:37:11.000Z,82.00
2018-05-26T15:39:39.286Z,84.00
2018-05-26T15:42:06.807Z,92.60
2018-05-26T15:44:34.328Z,82.50
2018-05-26T15:47:01.856Z,83.70
2018-05-26T15:49:30.132Z,87.50
2018-05-26T15:51:57.661Z,91.40
2018-05-26T15:54:26.672Z,85.30
2018-05-26T15:56:54.954Z,81.50
2018-05-26T15:59:23.252Z,85.60
2018-05-26T16:01:50.750Z,84.20
2018-05-26T16:04:18.260Z,79.60
2018-05-26T16:06:46.526Z,83.90
2018-05-26T16:09:14.800Z,77.90
2018-05-26T16:11:43.091Z,83.20
2018-05-26T16:14:10.613Z,82.10
2018-05-26T16:16:38.886Z,88.00
2018-05-26T16:19:06.405Z,94.60
2018-05-26T16:21:34.298Z,87.20
2018-05-26T16:24:03.335Z,86.90
2018-05-26T16:26:31.602Z,81.40
2018-05-26T16:28:59.104Z,89.20
2018-05-26T16:31:26.624Z,91.40
2018-05-26T16:33:54.906Z,76.40
2018-05-26T16:36:23.186Z,80.60
2018-05-26T16:38:51.462Z,83.50
2018-05-26T16:41:19.746Z,92.00
2018-05-26T16:43:48.008Z,92.10
2018-05-26T16:46:16.274Z,87.40
2018-05-26T16:48:45.300Z,79.40
2018-05-26T16:51:12.877Z,79.30
2018-05-26T16:53:40.777Z,81.20
2018-05-26T16:56:08.293Z,92.60
2018-05-26T16:58:35.800Z,86.30
2018-05-26T17:01:04.078Z,81.10
2018-05-26T17:03:33.097Z,78.40
2018-05-26T17:06:01.364Z,82.70
2018-05-26T17:08:29.261Z,73.00
2018-05-26T17:10:56.770Z,91.60
2018-05-26T17:13:24.281Z,91.40
2018-05-26T17:15:51.806Z,87.30
2018-05-26T17:18:20.081Z,77.40
2018-05-26T17:20:47.584Z,91.90
2018-05-26T17:23:15.127Z,86.80
2018-05-26T17:25:43.394Z,88.60
2018-05-26T17:28:11.335Z,91.40
2018-05-26T17:30:38.834Z,95.20
2018-05-26T17:33:06.334Z,95.10
2018-05-26T17:35:33.859Z,90.80
2018-05-26T17:38:01.365Z,98.50
2018-05-26T17:40:28.873Z,98.20
2018-05-26T17:42:56.399Z,99.90
2018-05-26T17:45:23.935Z,99.90
2018-05-26T17:47:51.841Z,97.70
2018-05-26T17:50:19.761Z,98.70
2018-05-26T17:52:47.255Z,98.40
2018-05-26T17:55:14.805Z,99.90
2018-05-26T17:57:42.311Z,99.90
2018-05-26T18:00:09.817Z,99.90
2018-05-26T18:02:37.332Z,99.90
2018-05-26T18:05:04.841Z,99.90
2018-05-26T18:07:33.147Z,99.90
2018-05-26T18:10:01.425Z,99.90
2018-05-26T18:12:29.713Z,99.90
2018-05-26T18:14:57.617Z,99.90
2018-05-26T18:17:25.145Z,99.90
2018-05-26T18:22:21.922Z,99.90
2018-05-26T18:24:50.193Z,99.90
2018-05-26T18:27:17.734Z,99.90
2018-05-26T18:29:45.308Z,99.90
2018-05-26T18:34:41.680Z,99.90
2018-05-26T18:37:09.985Z,99.90
2018-05-26T18:39:37.505Z,99.90
2018-05-26T18:44:34.646Z,99.90
2018-05-26T18:47:02.942Z,99.90
2018-05-26T18:49:30.462Z,99.90
2018-05-26T18:51:58.772Z,99.90
2018-05-26T18:54:26.329Z,99.90
2018-05-26T18:56:53.843Z,99.90
2018-05-26T18:59:22.133Z,99.90
2018-05-26T19:01:50.432Z,99.90
2018-05-26T19:04:17.943Z,99.90
2018-05-26T19:06:45.488Z,99.90
2018-05-26T19:09:13.025Z,99.90
2018-05-26T19:11:40.937Z,99.90
2018-05-26T19:14:08.452Z,99.90
2018-05-26T19:19:05.569Z,99.90
2018-05-26T19:21:33.067Z,99.90
2018-05-26T19:24:00.573Z,99.90
2018-05-26T19:26:28.079Z,99.90
2018-05-26T19:28:55.611Z,99.90
2018-05-26T19:31:23.122Z,99.90
2018-05-26T19:33:50.659Z,99.90
2018-05-26T19:36:18.593Z,99.90
2018-05-26T19:38:46.425Z,99.90
2018-05-26T19:41:14.724Z,99.90
2018-05-26T19:43:42.226Z,99.90
2018-05-26T19:46:09.778Z,99.90
2018-05-26T19:53:35.012Z,99.90
2018-05-26T19:56:03.303Z,99.90
2018-05-26T19:58:31.216Z,99.90
2018-05-26T20:00:58.731Z,99.90
2018-05-26T20:03:26.238Z,99.90
2018-05-26T20:05:54.225Z,99.90
2018-05-26T20:08:21.772Z,99.90
2018-05-26T20:10:49.291Z,99.90
2018-05-26T20:13:16.842Z,99.90
2018-05-26T20:15:44.378Z,99.90
2018-05-26T20:18:12.332Z,99.90
2018-05-26T20:20:39.892Z,99.90
2018-05-26T20:23:07.437Z,99.90
2018-05-26T20:25:34.960Z,99.90
2018-05-26T20:28:03.623Z,99.90
2018-05-26T20:30:31.152Z,99.90
2018-05-26T20:32:58.663Z,99.90
2018-05-26T20:35:26.962Z,99.90
2018-05-26T20:37:56.019Z,99.90
2018-05-26T20:40:23.530Z,99.90
2018-05-26T20:42:51.072Z,99.90
2018-05-26T20:45:18.596Z,99.90
2018-05-26T20:47:46.867Z,99.90
2018-05-26T20:50:15.165Z,99.90
2018-05-26T20:52:42.669Z,99.90
2018-05-26T20:55:10.174Z,99.90
2018-05-26T20:57:38.065Z,99.90
2018-05-26T21:00:06.709Z,99.90
2018-05-26T21:02:35.001Z,99.90
2018-05-26T21:05:02.553Z,99.90
2018-05-26T21:07:30.828Z,99.90
2018-05-26T21:09:59.516Z,99.90
2018-05-26T21:12:27.022Z,99.90
2018-05-26T21:14:54.959Z,99.90
2018-05-26T21:17:22.872Z,99.90
2018-05-26T21:19:50.397Z,99.90
2018-05-26T21:22:17.928Z,99.90
2018-05-26T21:24:45.834Z,99.90
2018-05-26T21:27:13.351Z,99.90
2018-05-26T21:29:41.619Z,99.90
2018-05-26T21:32:09.990Z,99.90
2018-05-26T21:34:37.879Z,99.90
2018-05-26T21:37:06.160Z,99.90
2018-05-26T21:39:33.661Z,99.90
2018-05-26T21:42:01.195Z,99.90
2018-05-26T21:44:28.698Z,99.90
2018-05-26T21:46:56.223Z,99.90
2018-05-26T21:49:24.854Z,99.90
2018-05-26T21:51:53.127Z,99.90
2018-05-26T21:54:20.645Z,99.90
2018-05-26T21:56:48.158Z,99.90
2018-05-26T21:59:16.072Z,99.90
2018-05-26T22:01:43.575Z,99.90
2018-05-26T22:04:12.588Z,99.90
2018-05-26T22:06:40.843Z,99.90
2018-05-26T22:09:08.377Z,99.90
2018-05-26T22:11:35.879Z,99.90
2018-05-26T22:14:04.547Z,99.90
2018-05-26T22:16:32.061Z,99.90
2018-05-26T22:18:59.571Z,99.90
2018-05-26T22:21:27.872Z,99.90
2018-05-26T22:23:55.375Z,99.90
2018-05-26T22:26:22.895Z,99.90
2018-05-26T22:28:50.416Z,99.90
2018-05-26T22:31:17.940Z,99.90
2018-05-26T22:33:45.857Z,99.90
2018-05-26T22:36:14.149Z,99.90
2018-05-26T22:38:41.643Z,99.90
2018-05-26T22:41:10.299Z,99.90
2018-05-26T22:43:37.809Z,99.90
2018-05-26T22:46:05.735Z,99.90
2018-05-26T22:48:33.625Z,99.90
2018-05-26T22:51:01.157Z,99.90
2018-05-26T22:53:28.668Z,99.90
2018-05-26T22:55:56.976Z,99.90
2018-05-26T22:58:24.547Z,99.90
2018-05-26T23:00:52.059Z,99.90
2018-05-26T23:03:19.577Z,99.90
2018-05-26T23:05:47.103Z,99.90
2018-05-26T23:08:15.405Z,99.90
2018-05-26T23:10:42.933Z,99.90
2018-05-26T23:13:11.233Z,99.90
2018-05-26T23:15:38.747Z,99.90
2018-05-26T23:18:06.655Z,99.90
2018-05-26T23:23:03.051Z,99.90
2018-05-26T23:25:30.989Z,99.90
2018-05-26T23:27:58.549Z,99.90
2018-05-26T23:30:26.073Z,99.90
2018-05-26T23:32:55.086Z,99.90
2018-05-26T23:35:23.017Z,99.90
2018-05-26T23:37:50.519Z,99.90
2018-05-26T23:40:18.049Z,99.90
2018-05-26T23:42:45.610Z,99.90
2018-05-26T23:45:13.157Z,99.90
2018-05-26T23:47:41.430Z,99.90
2018-05-26T23:50:10.452Z,99.90
2018-05-26T23:52:38.385Z,99.90
2018-05-26T23:57:34.761Z,99.90
